Time;durP1;ratioP1;P1;durP2;ratioP2;P2;SDS_P1;SDS_P2;PMS_P1;PMS_P2;Temp;Humidity;BMP_temperature;BMP_pressure;BME280_temperature;BME280_humidity;BME280_pressure;Samples;Min_cycle;Max_cycle;Signal;HPM_P1;HPM_P2
2023/10/17 00:08:34;;;;;;;5.50;2.70;;;;;;;6.63;53.09;100384.16;7766109;32;38757;-79
2023/10/17 00:12:52;;;;;;;4.70;2.62;;;;;;;6.62;52.97;100388.72;7766090;32;37743;-79
2023/10/17 00:17:12;;;;;;;3.83;2.53;;;;;;;6.61;53.07;100380.84;7766058;32;38155;-79
2023/10/17 00:21:28;;;;;;;5.07;2.60;;;;;;;6.53;53.24;100371.16;7765774;32;40013;-79
2023/10/17 00:25:49;;;;;;;2.83;2.30;;;;;;;6.13;54.36;100377.13;7768480;32;38750;-79
2023/10/17 00:30:07;;;;;;;3.65;2.35;;;;;;;6.39;53.63;100376.75;7765859;32;37870;-79
2023/10/17 00:34:27;;;;;;;2.72;2.37;;;;;;;6.42;53.38;100378.19;7765809;32;40217;-80
2023/10/17 00:38:45;;;;;;;2.95;2.50;;;;;;;6.34;53.57;100387.44;7765806;32;40879;-80
2023/10/17 00:43:05;;;;;;;3.50;2.37;;;;;;;6.23;53.50;100382.81;7765665;32;37948;-80
2023/10/17 00:47:22;;;;;;;3.72;2.50;;;;;;;6.32;53.47;100383.31;7765914;32;37003;-80
2023/10/17 00:51:39;;;;;;;5.07;2.55;;;;;;;6.13;54.12;100374.41;7765651;32;39294;-80
2023/10/17 00:55:56;;;;;;;3.72;2.70;;;;;;;5.89;54.66;100374.25;7765565;32;40920;-80
2023/10/17 01:00:23;;;;;;;4.62;2.80;;;;;;;6.01;54.51;100372.47;7765431;32;37660;-80
2023/10/17 01:04:44;;;;;;;3.95;2.53;;;;;;;6.03;54.17;100363.28;7765455;32;38039;-80
2023/10/17 01:09:18;;;;;;;3.58;2.42;;;;;;;6.11;53.72;100361.09;7765583;32;39604;-80
2023/10/17 01:13:37;;;;;;;3.65;2.58;;;;;;;6.00;53.85;100354.59;7765497;32;39600;-79
2023/10/17 01:17:54;;;;;;;2.72;2.35;;;;;;;5.90;53.80;100351.56;7781996;32;38587;-80
2023/10/17 01:22:11;;;;;;;5.87;2.55;;;;;;;5.95;54.30;100351.69;7792347;32;37096;-79
2023/10/17 01:26:28;;;;;;;4.25;2.45;;;;;;;5.93;54.14;100348.41;7771488;32;39288;-80
2023/10/17 01:30:45;;;;;;;4.10;2.33;;;;;;;5.78;54.48;100353.38;7764381;32;39659;-80
2023/10/17 01:35:02;;;;;;;4.75;2.72;;;;;;;5.81;54.75;100351.03;7765032;32;38105;-80
2023/10/17 01:39:20;;;;;;;3.62;2.35;;;;;;;5.88;54.52;100350.97;7765135;32;37689;-80
2023/10/17 01:43:40;;;;;;;3.62;2.60;;;;;;;6.00;54.14;100343.75;7764945;32;40117;-80
2023/10/17 01:47:58;;;;;;;4.62;2.37;;;;;;;5.88;54.30;100337.44;7764910;32;39828;-79
2023/10/17 01:52:15;;;;;;;7.72;2.85;;;;;;;5.76;54.44;100353.59;7764983;32;36934;-79
2023/10/17 01:56:32;;;;;;;4.62;2.70;;;;;;;5.61;55.41;100356.66;7764876;32;37770;-79
2023/10/17 02:00:49;;;;;;;3.40;2.40;;;;;;;5.63;55.38;100343.75;7764798;32;39256;-80
2023/10/17 02:05:06;;;;;;;4.80;2.70;;;;;;;5.67;55.28;100359.53;7765283;32;41667;-79
2023/10/17 02:09:44;;;;;;;2.97;2.60;;;;;;;5.56;55.89;100363.81;7764413;32;38527;-80
2023/10/17 02:14:01;;;;;;;3.60;2.53;;;;;;;5.68;55.49;100355.78;7764513;32;37055;-80
2023/10/17 02:18:18;;;;;;;3.30;2.53;;;;;;;5.72;55.53;100357.78;7764391;32;40005;-80
2023/10/17 02:22:39;;;;;;;4.85;2.90;;;;;;;5.74;55.66;100361.09;7764050;32;39672;-79
2023/10/17 02:26:59;;;;;;;3.78;2.65;;;;;;;5.83;55.81;100361.63;7763573;32;37834;-80
2023/10/17 02:31:17;;;;;;;4.22;2.58;;;;;;;5.91;55.73;100360.50;7764160;32;37438;-80
2023/10/17 02:35:39;;;;;;;3.12;2.55;;;;;;;5.96;55.69;100369.59;7763782;32;40078;-80
2023/10/17 02:40:06;;;;;;;3.80;2.90;;;;;;;5.88;56.33;100372.59;7763866;32;40879;-80
2023/10/17 02:44:22;;;;;;;4.18;2.50;;;;;;;5.93;55.88;100364.62;7765201;32;37667;-79
2023/10/17 02:48:39;;;;;;;2.97;2.72;;;;;;;6.03;56.23;100363.28;7766969;32;37018;-79
2023/10/17 02:52:56;;;;;;;7.62;3.12;;;;;;;5.93;56.58;100359.22;7767068;32;40116;-79
2023/10/17 02:57:12;;;;;;;4.22;2.70;;;;;;;5.96;57.25;100366.91;7767791;32;40726;-79
2023/10/17 03:01:30;;;;;;;5.50;3.30;;;;;;;5.96;57.63;100371.50;7753020;32;38637;-80
2023/10/17 03:05:53;;;;;;;5.12;3.20;;;;;;;5.91;58.26;100372.13;7766838;32;37902;-80
2023/10/17 03:10:20;;;;;;;3.25;2.95;;;;;;;5.92;58.06;100368.38;7767088;32;40128;-80
2023/10/17 03:14:40;;;;;;;4.75;3.30;;;;;;;5.96;57.71;100366.91;7781155;32;39964;-80
2023/10/17 03:18:58;;;;;;;3.67;2.87;;;;;;;6.08;57.00;100366.97;7774390;32;38585;-80
2023/10/17 03:23:14;;;;;;;2.95;2.47;;;;;;;5.88;56.89;100367.19;7785769;32;37106;-80
2023/10/17 03:27:36;;;;;;;2.60;2.40;;;;;;;6.04;56.18;100367.62;7793909;32;39019;-81
2023/10/17 03:31:58;;;;;;;2.80;2.50;;;;;;;5.93;56.08;100367.34;7769453;32;39853;-81
2023/10/17 03:40:53;;;;;;;4.03;2.30;;;;;;;5.75;56.61;100367.34;7769966;32;38579;-81
2023/10/17 03:45:14;;;;;;;3.72;2.42;;;;;;;5.40;57.58;100370.62;7793347;32;39239;-81
2023/10/17 03:49:36;;;;;;;3.03;2.50;;;;;;;5.70;56.61;100359.09;7793559;32;40063;-81
2023/10/17 03:53:54;;;;;;;2.83;2.50;;;;;;;5.51;56.96;100369.88;7769908;32;37951;-81
2023/10/17 04:02:41;;;;;;;3.03;2.50;;;;;;;5.53;56.76;100366.97;7780271;32;39349;-81
2023/10/17 04:06:58;;;;;;;2.65;2.33;;;;;;;5.69;56.20;100355.56;7793262;32;40421;-81
2023/10/17 04:15:42;;;;;;;3.83;2.40;;;;;;;5.89;55.38;100357.19;7753075;32;36833;-81
2023/10/17 04:19:59;;;;;;;3.50;2.42;;;;;;;5.56;56.39;100358.41;7766157;32;39388;-81
2023/10/17 04:24:38;;;;;;;3.83;2.75;;;;;;;5.64;55.77;100361.63;7778214;32;39929;-81
2023/10/17 04:29:00;;;;;;;3.03;2.62;;;;;;;5.57;55.85;100363.59;7765736;32;37898;-81
2023/10/17 04:33:19;;;;;;;3.12;2.67;;;;;;;5.47;56.11;100357.88;7783399;32;37921;-81
2023/10/17 04:37:37;;;;;;;3.42;2.90;;;;;;;5.51;55.95;100361.78;7792749;32;39914;-81
2023/10/17 04:46:11;;;;;;;3.87;2.65;;;;;;;5.51;57.24;100361.78;7765626;32;38427;-80
2023/10/17 04:50:40;;;;;;;3.30;2.70;;;;;;;5.70;56.38;100362.59;7767940;32;37243;-80
2023/10/17 04:55:17;;;;;;;4.40;2.85;;;;;;;5.61;56.32;100369.37;7793038;32;40138;-81
2023/10/17 04:59:43;;;;;;;4.90;2.83;;;;;;;5.50;56.08;100365.50;7792775;32;40847;-81
2023/10/17 05:04:02;;;;;;;4.25;2.90;;;;;;;5.49;56.04;100368.47;7767285;32;37978;-80
2023/10/17 05:08:18;;;;;;;10.45;3.08;;;;;;;5.55;56.53;100373.78;7764458;32;36497;-81
2023/10/17 06:17:40;;;;;;;5.32;3.47;;;;;;;6.03;58.27;100439.09;7772039;32;38502;-78
2023/10/17 06:35:31;;;;;;;3.20;2.90;;;;;;;6.61;56.30;100435.03;7784348;32;38648;-79
2023/10/17 06:39:49;;;;;;;8.02;4.25;;;;;;;6.75;56.33;100437.31;7785183;32;37060;-78
2023/10/17 06:44:06;;;;;;;17.45;10.50;;;;;;;6.88;56.97;100430.03;7752657;32;38516;-78
2023/10/17 06:48:32;;;;;;;7.25;4.25;;;;;;;7.17;56.27;100438.34;7784294;32;40804;-80
2023/10/17 06:57:33;;;;;;;9.70;5.93;;;;;;;7.19;56.78;100447.88;7782470;32;37132;-80
2023/10/17 07:02:03;;;;;;;9.13;5.20;;;;;;;7.45;56.69;100443.94;7760211;32;39390;-79
2023/10/17 07:06:24;;;;;;;9.40;4.97;;;;;;;7.36;57.19;100442.62;7779033;32;40972;-80
2023/10/17 07:10:58;;;;;;;11.40;6.53;;;;;;;7.62;56.87;100437.78;7756598;32;37627;-80
2023/10/17 07:15:25;;;;;;;11.12;6.00;;;;;;;7.88;56.47;100433.75;7768601;32;37187;-77
2023/10/17 07:24:06;;;;;;;8.13;4.10;;;;;;;8.08;56.69;100445.06;7787408;32;39616;-78
2023/10/17 07:28:23;;;;;;;7.07;4.00;;;;;;;7.87;58.93;100449.22;7770632;32;38707;-78
2023/10/17 07:32:46;;;;;;;8.00;3.70;;;;;;;7.80;57.70;100443.09;7771329;32;37776;-79
2023/10/17 07:41:37;;;;;;;9.38;3.83;;;;;;;8.72;53.44;100437.91;7766482;32;40282;-80
2023/10/17 07:46:05;;;;;;;7.05;3.10;;;;;;;9.26;51.12;100432.88;7783508;32;38615;-78
2023/10/17 07:50:25;;;;;;;12.37;3.97;;;;;;;9.51;47.39;100424.28;7790547;32;37038;-78
2023/10/17 07:54:45;;;;;;;6.40;3.08;;;;;;;9.98;46.02;100417.56;7791733;32;39147;-78
2023/10/17 07:59:05;;;;;;;9.85;3.33;;;;;;;10.12;45.19;100418.88;7791686;32;40920;-79
2023/10/17 08:03:27;;;;;;;7.87;4.03;;;;;;;10.28;46.41;100429.97;7791337;32;38182;-79
2023/10/17 08:07:49;;;;;;;7.33;3.30;;;;;;;10.47;43.61;100420.41;7792439;32;37048;-79
2023/10/17 08:12:08;;;;;;;5.53;3.03;;;;;;;10.74;42.88;100425.03;7764420;32;39250;-82
2023/10/17 08:16:26;;;;;;;3.22;2.55;;;;;;;10.89;42.15;100429.81;7776997;32;39906;-80
2023/10/17 08:25:26;;;;;;;6.72;2.83;;;;;;;11.51;42.55;100412.03;7765638;32;37061;-79
2023/10/17 08:29:48;;;;;;;14.93;5.82;;;;;;;11.58;41.20;100407.16;7752715;32;40130;-80
2023/10/17 08:38:22;;;;;;;5.78;2.40;;;;;;;12.15;39.88;100400.09;7782559;32;38002;-77
2023/10/17 08:42:49;;;;;;;8.93;2.50;;;;;;;12.61;38.88;100390.38;7790371;32;37765;-77
2023/10/17 08:47:19;;;;;;;7.28;2.62;;;;;;;12.95;39.93;100402.50;7779509;32;40069;-78
2023/10/17 08:51:36;;;;;;;5.22;2.47;;;;;;;13.10;37.50;100398.09;7792280;32;40789;-78
2023/10/17 08:55:53;;;;;;;4.03;2.30;;;;;;;13.25;37.59;100405.50;7775695;32;38586;-78
2023/10/17 09:04:31;;;;;;;9.00;2.70;;;;;;;13.72;36.70;100407.09;7783086;32;39143;-78
2023/10/17 09:18:07;;;;;;;4.70;2.05;;;;;;;14.81;32.65;100403.63;7782583;32;37929;-78
2023/10/17 09:22:24;;;;;;;5.55;2.40;;;;;;;14.76;33.07;100392.69;7776425;32;39690;-79
2023/10/17 09:26:46;;;;;;;2.90;1.92;;;;;;;14.93;33.33;100383.22;7773902;32;39694;-78
2023/10/17 09:31:08;;;;;;;5.55;2.50;;;;;;;15.11;32.20;100379.78;7779739;32;171763;-78
2023/10/17 09:35:26;;;;;;;4.00;2.23;;;;;;;15.77;32.40;100381.06;7776522;32;36781;-79
2023/10/17 09:39:46;;;;;;;5.15;2.08;;;;;;;15.80;32.54;100371.44;7775670;32;39031;-80
2023/10/17 09:44:03;;;;;;;5.87;2.12;;;;;;;15.79;32.22;100371.72;7780800;32;39928;-79
2023/10/17 09:48:33;;;;;;;6.85;2.37;;;;;;;15.67;32.89;100363.84;7765925;32;36556;-79
2023/10/17 09:52:53;;;;;;;4.32;2.33;;;;;;;15.69;32.16;100367.94;7760340;32;37278;-79
2023/10/17 09:57:14;;;;;;;4.30;2.20;;;;;;;15.82;31.98;100365.66;7756629;32;39314;-79
2023/10/17 10:01:32;;;;;;;4.72;2.20;;;;;;;15.96;31.30;100361.06;7760279;32;40190;-80
2023/10/17 10:05:53;;;;;;;5.55;2.30;;;;;;;15.92;31.06;100355.34;7754909;32;37603;-80
2023/10/17 10:10:10;;;;;;;4.78;2.12;;;;;;;15.81;30.70;100353.00;7782338;32;37036;-80
2023/10/17 10:14:30;;;;;;;6.60;2.47;;;;;;;15.87;30.50;100347.16;7769024;32;39865;-80
2023/10/17 10:18:47;;;;;;;5.28;2.10;;;;;;;15.99;30.60;100335.75;7788870;32;40817;-80
2023/10/17 10:23:04;;;;;;;5.55;2.25;;;;;;;15.90;30.89;100331.97;7781256;32;38084;-81
2023/10/17 10:27:27;;;;;;;4.12;2.40;;;;;;;15.94;31.09;100324.81;7750636;32;37987;-81
2023/10/17 10:31:44;;;;;;;6.80;2.40;;;;;;;16.39;31.56;100330.78;7784161;32;39569;-81
2023/10/17 10:36:01;;;;;;;9.88;2.62;;;;;;;16.77;30.58;100330.75;7777604;32;39653;-81
2023/10/17 10:40:22;;;;;;;6.25;2.62;;;;;;;17.08;29.46;100313.75;7772637;32;38833;-82
2023/10/17 10:44:42;;;;;;;3.80;2.08;;;;;;;17.41;29.34;100310.94;7770587;32;37046;-81
2023/10/17 10:48:59;;;;;;;6.85;1.92;;;;;;;17.84;27.56;100297.66;7778984;32;39869;-80
2023/10/17 10:53:28;;;;;;;3.37;1.80;;;;;;;18.19;26.66;100292.50;7762242;32;39969;-81
2023/10/17 10:57:46;;;;;;;3.78;2.15;;;;;;;18.42;26.70;100288.94;7775794;32;38005;-82
2023/10/17 11:02:03;;;;;;;5.00;2.00;;;;;;;17.96;26.20;100283.34;7787347;32;37132;-82
2023/10/17 11:06:24;;;;;;;9.60;2.20;;;;;;;17.91;26.46;100272.44;7792700;32;40049;-80
2023/10/17 11:10:41;;;;;;;4.93;2.30;;;;;;;17.99;26.79;100276.44;7792647;32;40273;-82
2023/10/17 11:15:16;;;;;;;5.45;2.05;;;;;;;17.90;26.07;100273.59;7790576;32;38789;-81
2023/10/17 11:19:33;;;;;;;3.78;1.98;;;;;;;17.80;27.78;100268.25;7775665;32;37012;-81
2023/10/17 11:23:55;;;;;;;5.80;2.30;;;;;;;18.55;26.27;100261.28;7766503;32;39376;-81
2023/10/17 11:28:16;;;;;;;6.57;1.92;;;;;;;18.56;25.58;100254.66;7766454;32;40938;-82
2023/10/17 11:32:39;;;;;;;4.50;1.98;;;;;;;18.87;24.51;100247.56;7790572;32;37713;-81
2023/10/17 11:37:02;;;;;;;5.07;2.17;;;;;;;18.86;25.26;100243.97;7793660;32;37168;-81
2023/10/17 11:41:19;;;;;;;4.40;1.87;;;;;;;18.57;25.01;100247.16;7793672;32;39071;-81
2023/10/17 11:45:40;;;;;;;4.15;1.67;;;;;;;19.66;25.88;100246.75;7793423;32;40696;-81
2023/10/17 11:49:56;;;;;;;6.80;1.60;;;;;;;20.18;23.14;100234.94;7778798;32;39210;-78
2023/10/17 11:54:13;;;;;;;2.58;1.60;;;;;;;20.30;23.63;100233.47;7793380;32;36733;-77
2023/10/17 11:58:51;;;;;;;3.80;1.75;;;;;;;20.47;22.27;100222.38;7793010;32;40190;-79
2023/10/17 12:03:07;;;;;;;3.37;1.70;;;;;;;20.30;22.76;100225.16;7793072;32;40788;-79
2023/10/17 12:07:24;;;;;;;2.42;1.42;;;;;;;20.19;23.22;100216.37;7793146;32;38062;-79
2023/10/17 12:11:40;;;;;;;5.28;1.77;;;;;;;20.47;23.29;100210.50;7793253;32;36774;-79
2023/10/17 12:16:02;;;;;;;3.60;1.70;;;;;;;20.69;22.79;100206.75;7792970;32;39302;-79
2023/10/17 12:20:28;;;;;;;4.75;1.83;;;;;;;20.76;22.98;100202.31;7779895;32;40560;-81
2023/10/17 12:24:46;;;;;;;5.65;2.03;;;;;;;20.94;22.38;100199.50;7793019;32;37862;-79
2023/10/17 12:29:02;;;;;;;6.35;1.50;;;;;;;19.56;23.46;100193.66;7792948;32;38769;-79
2023/10/17 12:33:23;;;;;;;5.45;1.90;;;;;;;20.31;22.64;100193.59;7792898;32;39412;-79
2023/10/17 12:37:43;;;;;;;2.03;1.33;;;;;;;20.34;22.23;100171.59;7792781;32;40042;-79
2023/10/17 12:42:00;;;;;;;5.32;1.60;;;;;;;20.19;23.06;100175.66;7792619;32;38471;-80
2023/10/17 12:46:17;;;;;;;4.22;1.73;;;;;;;20.73;22.20;100180.81;7792638;32;38073;-79
2023/10/17 12:50:33;;;;;;;2.60;1.70;;;;;;;20.57;22.37;100169.41;7792595;32;39441;-80
2023/10/17 12:54:50;;;;;;;3.62;1.62;;;;;;;21.34;22.75;100172.22;7792536;32;39958;-80
2023/10/17 12:59:12;;;;;;;3.05;1.87;;;;;;;21.53;22.10;100165.47;7792415;32;38536;-80
2023/10/17 13:03:28;;;;;;;3.78;1.77;;;;;;;21.30;21.64;100159.34;7792611;32;36727;-78
2023/10/17 13:07:45;;;;;;;4.43;1.90;;;;;;;20.85;22.57;100160.72;7778517;32;39400;-79
2023/10/17 13:12:02;;;;;;;5.62;1.70;;;;;;;20.61;22.45;100162.09;7792483;32;40017;-79
2023/10/17 13:16:20;;;;;;;5.57;1.98;;;;;;;21.26;21.43;100158.41;7792439;32;37668;-79
2023/10/17 13:20:37;;;;;;;3.97;1.90;;;;;;;20.70;22.61;100150.19;7792531;32;37140;-79
2023/10/17 13:25:19;;;;;;;4.05;1.70;;;;;;;20.62;22.40;100149.06;7791502;32;40413;-79
2023/10/17 13:29:36;;;;;;;1.98;1.70;;;;;;;20.29;23.79;100148.81;7791291;32;39914;-79
2023/10/17 13:33:55;;;;;;;4.90;2.65;;;;;;;20.44;22.82;100151.06;7792227;32;38376;-79
2023/10/17 13:38:11;;;;;;;4.28;2.25;;;;;;;20.25;23.82;100159.72;7792125;32;37804;-80
2023/10/17 13:42:28;;;;;;;5.22;2.25;;;;;;;20.11;24.52;100156.31;7792108;32;40146;-80
2023/10/17 13:46:44;;;;;;;4.28;2.10;;;;;;;19.81;23.96;100151.44;7787734;32;40609;-81
2023/10/17 13:51:07;;;;;;;5.70;1.92;;;;;;;19.56;24.52;100149.44;7789903;32;37991;-79
2023/10/17 13:55:25;;;;;;;6.53;2.78;;;;;;;19.16;24.44;100142.03;7777301;32;37432;-80
2023/10/17 13:59:48;;;;;;;4.90;2.30;;;;;;;18.57;25.25;100137.56;7777374;32;40693;-80
2023/10/17 14:04:04;;;;;;;7.82;2.67;;;;;;;18.51;26.04;100129.75;7791245;32;39664;-80
2023/10/17 14:08:22;;;;;;;7.47;2.25;;;;;;;18.48;26.23;100144.16;7791050;32;38002;-79
2023/10/17 14:12:42;;;;;;;6.50;2.47;;;;;;;18.58;25.22;100160.47;7791119;32;36972;-79
2023/10/17 14:17:01;;;;;;;5.95;1.87;;;;;;;18.17;25.84;100150.47;7791244;32;39811;-79
2023/10/17 14:21:34;;;;;;;6.37;2.40;;;;;;;17.94;26.28;100157.94;7790607;32;40006;-80
2023/10/17 14:26:03;;;;;;;8.13;2.50;;;;;;;17.79;26.22;100146.09;7790353;32;38029;-80
2023/10/17 14:30:21;;;;;;;6.80;2.37;;;;;;;17.34;27.76;100145.19;7790625;32;36755;-79
2023/10/17 14:34:41;;;;;;;5.32;2.10;;;;;;;17.06;27.51;100142.47;7790567;32;39525;-79
2023/10/17 14:38:59;;;;;;;16.58;7.15;;;;;;;16.89;28.74;100135.63;7793347;32;40032;-81
2023/10/17 14:43:15;;;;;;;6.25;2.92;;;;;;;17.15;29.00;100139.81;7799756;32;38445;-81
2023/10/17 14:47:32;;;;;;;4.93;2.70;;;;;;;17.17;28.65;100138.34;7799227;32;37899;-79
2023/10/17 14:51:49;;;;;;;6.65;2.78;;;;;;;17.22;28.33;100131.94;7799157;32;38610;-79
2023/10/17 14:56:05;;;;;;;5.60;2.92;;;;;;;16.97;29.50;100136.00;7799181;32;39906;-80
2023/10/17 15:00:22;;;;;;;8.35;3.12;;;;;;;16.74;29.09;100133.13;7798357;32;36993;-79
2023/10/17 15:04:39;;;;;;;7.53;3.10;;;;;;;16.78;29.66;100125.91;7799346;32;37906;-79
2023/10/17 15:08:56;;;;;;;5.45;2.95;;;;;;;16.31;31.63;100130.59;7798616;32;40003;-81
2023/10/17 15:13:12;;;;;;;6.93;3.08;;;;;;;15.99;32.23;100135.00;7784754;32;39616;-79
2023/10/17 15:17:31;;;;;;;8.23;3.00;;;;;;;15.83;33.34;100137.16;7798535;32;37997;-81
2023/10/17 15:21:48;;;;;;;9.20;3.50;;;;;;;15.72;34.30;100133.72;7798524;32;37871;-79
2023/10/17 15:26:04;;;;;;;9.70;3.85;;;;;;;15.46;34.65;100140.72;7798178;32;39915;-79
2023/10/17 15:30:22;;;;;;;8.82;3.92;;;;;;;14.84;35.58;100141.47;7798029;32;40718;-79
2023/10/17 15:34:52;;;;;;;8.60;3.33;;;;;;;14.83;35.30;100143.41;7798124;32;38154;-80
2023/10/17 15:39:12;;;;;;;6.15;2.87;;;;;;;14.62;35.76;100142.78;7797686;32;37103;-79
2023/10/17 15:43:28;;;;;;;7.68;2.20;;;;;;;14.40;36.00;100150.66;7797984;32;39038;-79
2023/10/17 15:47:48;;;;;;;7.70;2.87;;;;;;;14.48;35.58;100143.75;7797522;32;39799;-79
2023/10/17 15:52:06;;;;;;;5.05;2.70;;;;;;;14.16;35.99;100150.59;7793317;32;37682;-81
2023/10/17 15:56:30;;;;;;;6.82;3.53;;;;;;;13.92;36.36;100147.75;7779378;32;36973;-79
2023/10/17 16:00:47;;;;;;;8.73;3.40;;;;;;;13.69;37.01;100153.69;7792954;32;39813;-79
2023/10/17 16:05:04;;;;;;;5.37;2.80;;;;;;;13.55;37.22;100162.81;7792799;32;41036;-80
2023/10/17 16:09:21;;;;;;;8.13;3.12;;;;;;;13.55;37.66;100160.06;7792201;32;38511;-78
2023/10/17 16:13:38;;;;;;;7.18;3.00;;;;;;;13.30;38.33;100167.28;7779019;32;37775;-80
2023/10/17 16:17:54;;;;;;;4.70;2.67;;;;;;;13.25;38.12;100168.12;7765928;32;39896;-80
2023/10/17 16:22:10;;;;;;;7.25;2.60;;;;;;;13.24;38.32;100157.44;7764386;32;39674;-80
2023/10/17 16:26:27;;;;;;;4.05;2.53;;;;;;;13.02;38.75;100161.38;7765811;32;38894;-79
2023/10/17 16:30:47;;;;;;;7.43;2.80;;;;;;;12.94;39.06;100170.97;7765708;32;37018;-81
2023/10/17 16:35:07;;;;;;;4.37;2.67;;;;;;;13.04;38.81;100170.13;7765797;32;40623;-80
2023/10/17 16:39:25;;;;;;;5.70;2.90;;;;;;;12.78;39.16;100164.72;7765857;32;39456;-79
2023/10/17 16:43:42;;;;;;;8.10;2.83;;;;;;;13.06;38.52;100167.09;7764534;32;39552;-80
2023/10/17 16:47:59;;;;;;;4.55;2.72;;;;;;;12.85;39.15;100166.31;7765754;32;36756;-79
2023/10/17 16:52:15;;;;;;;5.65;2.83;;;;;;;12.80;39.45;100169.06;7765591;32;40042;-80
2023/10/17 16:56:35;;;;;;;6.28;3.25;;;;;;;12.58;39.51;100167.50;7765514;32;39914;-80
2023/10/17 17:00:53;;;;;;;8.93;3.85;;;;;;;12.85;39.20;100167.16;7765127;32;38621;-80
2023/10/17 17:05:10;;;;;;;7.80;3.00;;;;;;;12.50;40.51;100162.56;7764877;32;37643;-79
2023/10/17 17:09:27;;;;;;;7.45;3.20;;;;;;;12.62;39.37;100151.34;7765370;32;40104;-79
2023/10/17 17:13:43;;;;;;;7.22;2.67;;;;;;;12.49;40.18;100159.03;7765331;32;40804;-79
2023/10/17 17:18:00;;;;;;;5.20;2.62;;;;;;;12.58;40.03;100157.34;7765308;32;37970;-80
2023/10/17 17:22:36;;;;;;;5.87;2.70;;;;;;;12.59;40.38;100169.16;7764871;32;37470;-80
2023/10/17 17:26:56;;;;;;;9.10;2.92;;;;;;;12.58;40.53;100173.78;7765184;32;39833;-79
2023/10/17 17:31:14;;;;;;;6.55;3.15;;;;;;;12.59;40.57;100166.41;7787495;32;40548;-80
2023/10/17 17:35:31;;;;;;;6.75;2.75;;;;;;;12.42;41.18;100168.59;7792171;32;37815;-79
2023/10/17 17:39:47;;;;;;;6.47;2.70;;;;;;;12.13;41.12;100177.38;7792197;32;37784;-80
2023/10/17 17:44:07;;;;;;;4.30;2.67;;;;;;;12.14;41.20;100163.44;7792035;32;40098;-80
2023/10/17 17:48:24;;;;;;;6.07;2.90;;;;;;;12.07;41.33;100168.31;7792236;32;40707;-80
2023/10/17 17:52:41;;;;;;;7.60;3.50;;;;;;;12.00;41.34;100175.97;7777098;32;38694;-80
2023/10/17 17:56:58;;;;;;;7.57;3.97;;;;;;;11.95;41.59;100182.28;7776632;32;37923;-80
2023/10/17 18:01:16;;;;;;;8.05;3.80;;;;;;;11.82;42.15;100180.84;7777556;32;39312;-80
2023/10/17 18:05:34;;;;;;;8.30;3.67;;;;;;;12.01;41.99;100181.16;7764745;32;39778;-79
2023/10/17 18:09:53;;;;;;;8.98;3.85;;;;;;;11.76;42.70;100181.94;7775848;32;36524;-80
2023/10/17 18:14:09;;;;;;;10.02;4.43;;;;;;;11.69;42.63;100186.00;7791196;32;36722;-81
2023/10/17 18:18:26;;;;;;;7.30;3.83;;;;;;;11.41;43.00;100185.38;7770298;32;39423;-79
2023/10/17 18:22:47;;;;;;;9.73;4.43;;;;;;;11.43;42.58;100194.09;7790350;32;39650;-78
2023/10/17 18:27:03;;;;;;;11.50;4.05;;;;;;;10.97;44.09;100197.47;7791388;32;37943;-79
2023/10/17 18:31:20;;;;;;;8.45;3.72;;;;;;;11.09;45.26;100189.06;7791314;32;37380;-78
2023/10/17 18:35:37;;;;;;;6.28;3.75;;;;;;;11.10;44.56;100187.97;7791451;32;40102;-79
2023/10/17 18:39:53;;;;;;;8.85;3.90;;;;;;;10.96;44.73;100187.62;7791100;32;40039;-78
2023/10/17 18:44:10;;;;;;;8.82;4.30;;;;;;;11.11;44.13;100186.91;7785354;32;38193;-78
2023/10/17 18:48:26;;;;;;;10.02;4.25;;;;;;;11.05;44.25;100183.28;7786313;32;37644;-79
2023/10/17 18:52:43;;;;;;;7.62;4.07;;;;;;;10.90;44.82;100197.69;7753910;32;39495;-76
2023/10/17 18:57:00;;;;;;;8.05;4.30;;;;;;;10.92;44.81;100202.03;7769616;32;39908;-79
2023/10/17 19:01:17;;;;;;;10.88;3.97;;;;;;;10.90;45.39;100207.78;7782051;32;37702;-77
2023/10/17 19:05:36;;;;;;;6.22;3.75;;;;;;;11.16;45.10;100210.63;7762092;32;38041;-78
2023/10/17 19:09:55;;;;;;;5.20;3.55;;;;;;;10.74;45.90;100217.75;7762717;32;39624;-76
2023/10/17 19:14:16;;;;;;;8.32;3.85;;;;;;;10.81;46.03;100218.34;7762068;32;40086;-77
2023/10/17 19:18:39;;;;;;;7.93;4.10;;;;;;;10.83;46.03;100216.22;7762659;32;36736;-78
2023/10/17 19:22:59;;;;;;;8.50;4.10;;;;;;;10.71;46.31;100212.84;7747971;32;36461;-78
2023/10/17 19:27:16;;;;;;;8.00;4.20;;;;;;;10.68;46.65;100202.47;7790355;32;39383;-78
2023/10/17 19:31:32;;;;;;;8.50;4.05;;;;;;;10.78;46.86;100198.97;7793091;32;39741;-78
2023/10/17 19:35:49;;;;;;;8.80;4.00;;;;;;;10.56;47.40;100197.19;7792568;32;38783;-78
2023/10/17 19:40:07;;;;;;;7.35;3.97;;;;;;;10.62;47.12;100198.06;7777325;32;37069;-80
2023/10/17 19:44:25;;;;;;;10.90;4.40;;;;;;;10.23;47.63;100192.84;7771772;32;40118;-79
2023/10/17 19:48:43;;;;;;;7.47;4.10;;;;;;;10.41;46.83;100176.09;7768484;32;40311;-79
2023/10/17 19:53:00;;;;;;;10.55;4.32;;;;;;;10.51;46.52;100168.00;7773914;32;38694;-78
2023/10/17 19:57:17;;;;;;;8.30;4.20;;;;;;;10.36;46.87;100177.97;7765780;32;37099;-79
2023/10/17 20:01:33;;;;;;;7.57;4.05;;;;;;;10.43;46.44;100173.91;7792535;32;40065;-79
2023/10/17 20:05:50;;;;;;;10.82;4.78;;;;;;;10.35;46.87;100177.16;7792289;32;39985;-78
2023/10/17 20:10:10;;;;;;;7.28;4.15;;;;;;;10.09;47.09;100192.41;7792058;32;38706;-80
2023/10/17 20:14:28;;;;;;;10.57;4.30;;;;;;;10.07;46.77;100189.97;7774760;32;36802;-80
2023/10/17 20:18:45;;;;;;;10.68;4.25;;;;;;;10.29;46.04;100170.78;7751678;32;41550;-78
2023/10/17 20:23:03;;;;;;;8.40;4.30;;;;;;;10.30;46.02;100171.63;7751133;32;41004;-79
2023/10/17 20:27:22;;;;;;;10.32;4.50;;;;;;;10.11;46.28;100171.19;7764773;32;37910;-77
2023/10/17 20:31:39;;;;;;;8.63;4.35;;;;;;;10.19;45.89;100178.06;7764793;32;37060;-78
2023/10/17 20:36:05;;;;;;;8.63;4.10;;;;;;;10.19;46.08;100173.44;7764611;32;39325;-78
2023/10/17 20:40:22;;;;;;;11.07;5.20;;;;;;;10.06;46.47;100174.69;7765505;32;39978;-78
2023/10/17 20:44:39;;;;;;;11.45;5.15;;;;;;;9.75;47.05;100179.03;7765686;32;37996;-79
2023/10/17 20:48:56;;;;;;;13.90;4.95;;;;;;;9.93;46.91;100164.22;7772702;32;37191;-78
2023/10/17 20:53:13;;;;;;;10.50;4.50;;;;;;;9.69;47.52;100159.13;7792798;32;39373;-78
2023/10/17 20:57:30;;;;;;;10.30;5.37;;;;;;;9.46;48.11;100149.31;7792633;32;40852;-80
2023/10/17 21:01:47;;;;;;;10.55;5.18;;;;;;;9.17;48.89;100163.13;7792605;32;37935;-79
2023/10/17 21:06:03;;;;;;;8.27;4.72;;;;;;;9.34;48.28;100167.69;7792626;32;37167;-79
2023/10/17 21:10:20;;;;;;;11.85;4.90;;;;;;;9.32;47.73;100157.06;7792576;32;39460;-79
2023/10/17 21:14:36;;;;;;;12.20;4.10;;;;;;;9.18;47.96;100155.81;7792535;32;40534;-79
2023/10/17 21:18:53;;;;;;;8.55;4.28;;;;;;;9.13;48.05;100158.47;7792297;32;38183;-79
2023/10/17 21:23:10;;;;;;;6.70;4.30;;;;;;;8.78;48.57;100156.94;7769114;32;38891;-79
2023/10/17 21:27:26;;;;;;;10.88;4.10;;;;;;;9.03;48.22;100157.25;7765223;32;39514;-80
2023/10/17 21:31:43;;;;;;;9.18;4.60;;;;;;;8.59;49.50;100167.28;7765028;32;40828;-81
2023/10/17 21:36:03;;;;;;;8.95;4.78;;;;;;;8.51;49.64;100165.78;7751600;32;38011;-80
2023/10/17 21:40:19;;;;;;;8.07;4.75;;;;;;;8.53;50.09;100160.09;7767090;32;37149;-80
2023/10/17 21:44:35;;;;;;;10.00;4.50;;;;;;;8.49;50.20;100150.81;7765238;32;39268;-81
2023/10/17 21:48:52;;;;;;;8.25;4.50;;;;;;;8.46;50.17;100154.84;7764091;32;40759;-79
2023/10/17 21:53:08;;;;;;;8.35;4.35;;;;;;;8.58;50.21;100166.44;7764806;32;38804;-79
2023/10/17 21:57:24;;;;;;;9.13;5.35;;;;;;;8.63;49.78;100162.97;7775446;32;36800;-81
2023/10/17 22:01:43;;;;;;;9.43;4.75;;;;;;;8.21;52.50;100163.38;7791991;32;39322;-81
2023/10/17 22:06:06;;;;;;;11.23;4.53;;;;;;;8.47;51.26;100159.22;7791957;32;38879;-81
2023/10/17 22:10:23;;;;;;;12.48;5.03;;;;;;;8.54;50.41;100153.59;7791779;32;37597;-79
2023/10/17 22:14:39;;;;;;;9.50;4.93;;;;;;;8.27;50.95;100141.47;7791703;32;37143;-81
2023/10/17 22:18:55;;;;;;;8.45;4.87;;;;;;;8.16;51.20;100147.84;7791718;32;40054;-79
2023/10/17 22:23:12;;;;;;;10.05;5.05;;;;;;;7.98;51.57;100161.66;7780694;32;39990;-79
2023/10/17 22:27:28;;;;;;;9.10;4.80;;;;;;;8.24;50.35;100155.59;7764288;32;38418;-80